Time;durP1;ratioP1;P1;durP2;ratioP2;P2;SDS_P1;SDS_P2;PMS_P1;PMS_P2;Temp;Humidity;BMP_temperature;BMP_pressure;BME280_temperature;BME280_humidity;BME280_pressure;Samples;Min_cycle;Max_cycle;Signal;HPM_P1;HPM_P2
2021/07/16 00:01:29;;;;;;;32.50;7.72;;;;;;;;;;5041335;28;20051;-86
2021/07/16 00:03:55;;;;;;;28.33;7.07;;;;;;;;;;5059534;28;20041;-87
2021/07/16 00:06:27;;;;;;;33.22;8.60;;;;;;;;;;5042992;28;20049;-87
2021/07/16 00:08:54;;;;;;;26.65;6.95;;;;;;;;;;5058886;28;20114;-87
2021/07/16 00:11:21;;;;;;;29.75;7.47;;;;;;;;;;5058125;28;20049;-86
2021/07/16 00:13:48;;;;;;;33.58;7.55;;;;;;;;;;5057995;28;20041;-86
2021/07/16 00:16:15;;;;;;;30.95;7.53;;;;;;;;;;5039513;28;20045;-87
2021/07/16 00:18:43;;;;;;;29.55;6.70;;;;;;;;;;5039942;28;20064;-87
2021/07/16 00:21:11;;;;;;;29.95;7.30;;;;;;;;;;5040114;28;20469;-87
2021/07/16 00:23:38;;;;;;;30.90;6.93;;;;;;;;;;5041690;28;20113;-87
2021/07/16 00:26:05;;;;;;;33.75;7.25;;;;;;;;;;5040619;28;20059;-87
2021/07/16 00:28:32;;;;;;;30.15;6.70;;;;;;;;;;5041586;28;20049;-87
2021/07/16 00:31:01;;;;;;;31.58;6.68;;;;;;;;;;5056197;28;20052;-87
2021/07/16 00:33:28;;;;;;;39.28;7.38;;;;;;;;;;5040735;28;20052;-87
2021/07/16 00:35:56;;;;;;;26.20;7.43;;;;;;;;;;5058701;28;20227;-87
2021/07/16 00:38:22;;;;;;;33.08;7.25;;;;;;;;;;5055446;28;20060;-87
2021/07/16 00:40:51;;;;;;;21.38;7.38;;;;;;;;;;5041231;28;20091;-87
2021/07/16 00:43:18;;;;;;;31.92;7.15;;;;;;;;;;5039878;28;20345;-87
2021/07/16 00:45:48;;;;;;;30.92;7.28;;;;;;;;;;5040699;28;20087;-87
2021/07/16 00:48:14;;;;;;;31.98;6.78;;;;;;;;;;5055265;28;20056;-87
2021/07/16 00:50:42;;;;;;;25.85;7.25;;;;;;;;;;5053422;28;20110;-87
2021/07/16 00:53:14;;;;;;;28.75;7.10;;;;;;;;;;5059480;28;20053;-87
2021/07/16 00:55:42;;;;;;;32.00;6.13;;;;;;;;;;5042777;28;20448;-87
2021/07/16 00:58:11;;;;;;;28.40;6.82;;;;;;;;;;5059196;28;20049;-87
2021/07/16 01:00:37;;;;;;;33.00;7.50;;;;;;;;;;5058674;28;20488;-87
2021/07/16 01:03:08;;;;;;;29.27;7.30;;;;;;;;;;5041502;28;20071;-87
2021/07/16 01:05:36;;;;;;;37.58;8.18;;;;;;;;;;5058912;28;20139;-87
2021/07/16 01:08:03;;;;;;;31.92;6.70;;;;;;;;;;5065783;28;20143;-88
2021/07/16 01:10:31;;;;;;;31.85;8.27;;;;;;;;;;5045904;28;20053;-87
2021/07/16 01:13:01;;;;;;;33.53;6.68;;;;;;;;;;5042917;28;20089;-87
2021/07/16 01:15:32;;;;;;;38.15;7.47;;;;;;;;;;5060157;28;20526;-87
2021/07/16 01:17:59;;;;;;;27.20;6.32;;;;;;;;;;5042290;28;20045;-87
2021/07/16 01:20:28;;;;;;;38.28;7.18;;;;;;;;;;5041813;28;20049;-87
2021/07/16 01:23:10;;;;;;;26.35;7.22;;;;;;;;;;5040013;28;20306;-87
2021/07/16 01:25:37;;;;;;;31.83;7.15;;;;;;;;;;5058416;28;20055;-87
2021/07/16 01:28:04;;;;;;;45.53;8.18;;;;;;;;;;5043020;28;20095;-86
2021/07/16 01:30:32;;;;;;;35.78;7.28;;;;;;;;;;5062532;28;20053;-87
2021/07/16 01:33:02;;;;;;;26.33;6.78;;;;;;;;;;5061993;28;20091;-86
2021/07/16 01:35:32;;;;;;;31.70;7.82;;;;;;;;;;5049557;28;20075;-87
2021/07/16 01:37:58;;;;;;;37.72;8.02;;;;;;;;;;5077109;28;20047;-87
2021/07/16 01:40:26;;;;;;;27.35;7.90;;;;;;;;;;5077678;28;20136;-87
2021/07/16 01:42:55;;;;;;;35.17;8.90;;;;;;;;;;5064220;28;20045;-86
2021/07/16 01:45:24;;;;;;;43.30;9.45;;;;;;;;;;5062941;28;20161;-87
2021/07/16 01:48:00;;;;;;;40.75;9.27;;;;;;;;;;5045024;28;20084;-86
2021/07/16 01:50:29;;;;;;;39.42;9.18;;;;;;;;;;5061825;28;20053;-86
2021/07/16 01:52:59;;;;;;;30.08;7.53;;;;;;;;;;5044346;28;20313;-86
2021/07/16 01:55:31;;;;;;;34.17;8.43;;;;;;;;;;5043715;28;20140;-86
2021/07/16 01:57:59;;;;;;;38.58;8.55;;;;;;;;;;5030214;28;20046;-86
2021/07/16 02:00:31;;;;;;;35.33;7.57;;;;;;;;;;5041562;28;20417;-86
2021/07/16 02:03:03;;;;;;;35.78;8.88;;;;;;;;;;5042373;28;20050;-86
2021/07/16 02:05:31;;;;;;;32.90;8.52;;;;;;;;;;5051885;28;20194;-86
2021/07/16 02:08:11;;;;;;;32.53;7.88;;;;;;;;;;5045927;28;20055;-86
2021/07/16 02:10:42;;;;;;;31.98;8.00;;;;;;;;;;5045370;28;20139;-86
2021/07/16 02:13:09;;;;;;;39.10;9.88;;;;;;;;;;5062672;28;20186;-87
2021/07/16 02:15:38;;;;;;;36.92;8.75;;;;;;;;;;5044305;28;20061;-86
2021/07/16 02:18:05;;;;;;;31.17;8.07;;;;;;;;;;5044830;28;20060;-86
2021/07/16 02:20:36;;;;;;;40.70;9.38;;;;;;;;;;5044486;28;20396;-86
2021/07/16 02:23:05;;;;;;;43.53;10.18;;;;;;;;;;5045308;28;20139;-86
2021/07/16 02:25:33;;;;;;;28.30;9.25;;;;;;;;;;5027908;28;20103;-86
2021/07/16 02:28:01;;;;;;;34.38;8.57;;;;;;;;;;5043021;28;20053;-85
2021/07/16 02:30:30;;;;;;;32.92;8.30;;;;;;;;;;5042059;28;20072;-86
2021/07/16 02:32:58;;;;;;;38.50;8.05;;;;;;;;;;5043058;28;20140;-86
2021/07/16 02:35:26;;;;;;;40.13;8.13;;;;;;;;;;5060822;28;20063;-86
2021/07/16 02:37:53;;;;;;;30.70;8.30;;;;;;;;;;5043649;28;20072;-86
2021/07/16 02:40:23;;;;;;;33.58;7.90;;;;;;;;;;5042539;28;20421;-86
2021/07/16 02:42:49;;;;;;;34.00;7.85;;;;;;;;;;5044629;28;20147;-86
2021/07/16 02:45:20;;;;;;;37.65;9.38;;;;;;;;;;5043982;28;20057;-86
2021/07/16 02:47:48;;;;;;;44.15;10.23;;;;;;;;;;5043501;28;20055;-86
2021/07/16 02:50:18;;;;;;;38.22;9.93;;;;;;;;;;5060680;28;20136;-86
2021/07/16 02:52:51;;;;;;;44.13;11.35;;;;;;;;;;5045634;28;20075;-86
2021/07/16 02:55:19;;;;;;;46.55;10.45;;;;;;;;;;5044701;28;20055;-86
2021/07/16 02:57:48;;;;;;;36.45;9.45;;;;;;;;;;5043929;28;20056;-86
2021/07/16 03:00:17;;;;;;;40.88;9.43;;;;;;;;;;5043662;28;20125;-87
2021/07/16 03:02:46;;;;;;;45.78;11.93;;;;;;;;;;5044080;28;20045;-86
2021/07/16 03:05:18;;;;;;;28.83;8.65;;;;;;;;;;5044245;28;20049;-86
2021/07/16 03:07:49;;;;;;;31.85;7.43;;;;;;;;;;5044010;28;20073;-86
2021/07/16 03:10:20;;;;;;;42.25;9.80;;;;;;;;;;5059704;28;20064;-86
2021/07/16 03:12:46;;;;;;;34.83;8.43;;;;;;;;;;5043742;28;20092;-86
2021/07/16 03:15:15;;;;;;;41.40;10.18;;;;;;;;;;5042996;28;20051;-86
2021/07/16 03:17:44;;;;;;;42.10;10.05;;;;;;;;;;5042372;28;20052;-86
2021/07/16 03:20:13;;;;;;;44.13;11.10;;;;;;;;;;5060632;28;20045;-86
2021/07/16 03:22:40;;;;;;;42.42;11.23;;;;;;;;;;5042571;28;20055;-86
2021/07/16 03:25:22;;;;;;;51.60;12.43;;;;;;;;;;5046075;28;20075;-86
2021/07/16 03:27:50;;;;;;;38.83;13.07;;;;;;;;;;5042960;28;20049;-86
2021/07/16 03:30:27;;;;;;;40.97;11.77;;;;;;;;;;5060160;28;20120;-86
2021/07/16 03:32:56;;;;;;;40.15;11.05;;;;;;;;;;5043890;28;20044;-86
2021/07/16 03:35:23;;;;;;;32.83;8.32;;;;;;;;;;5059000;28;20049;-86
2021/07/16 03:37:52;;;;;;;33.75;9.63;;;;;;;;;;5043481;28;20400;-87
2021/07/16 03:40:23;;;;;;;35.83;8.82;;;;;;;;;;5043990;28;20502;-87
2021/07/16 03:42:50;;;;;;;39.90;8.70;;;;;;;;;;5064351;28;20076;-88
2021/07/16 03:45:18;;;;;;;41.08;9.90;;;;;;;;;;5049248;28;20068;-88
2021/07/16 03:47:49;;;;;;;31.27;8.35;;;;;;;;;;5067256;28;20100;-86
2021/07/16 03:50:18;;;;;;;31.60;8.68;;;;;;;;;;5060581;28;20075;-87
2021/07/16 03:52:45;;;;;;;34.50;8.07;;;;;;;;;;5045150;28;20143;-87
2021/07/16 03:55:12;;;;;;;35.53;6.97;;;;;;;;;;5063553;28;20053;-86
2021/07/16 03:57:46;;;;;;;35.65;7.50;;;;;;;;;;5060138;28;20048;-85
2021/07/16 04:00:15;;;;;;;40.25;8.13;;;;;;;;;;5042603;28;20115;-86
2021/07/16 04:02:42;;;;;;;31.05;7.43;;;;;;;;;;5043367;28;20049;-87
2021/07/16 04:05:11;;;;;;;34.67;7.72;;;;;;;;;;5042924;28;20065;-87
2021/07/16 04:07:45;;;;;;;32.25;6.90;;;;;;;;;;5040905;28;20475;-87
2021/07/16 04:10:20;;;;;;;21.35;6.13;;;;;;;;;;5057548;28;20102;-87
2021/07/16 04:12:51;;;;;;;28.83;6.22;;;;;;;;;;5058324;28;20143;-87
2021/07/16 04:15:25;;;;;;;26.73;6.05;;;;;;;;;;5042747;28;20123;-87
2021/07/16 04:17:56;;;;;;;29.25;6.45;;;;;;;;;;5041330;28;20065;-87
2021/07/16 04:20:26;;;;;;;40.85;7.05;;;;;;;;;;5039807;28;20060;-87
2021/07/16 04:22:56;;;;;;;32.78;6.53;;;;;;;;;;5041096;28;20098;-86
2021/07/16 04:25:23;;;;;;;35.33;7.53;;;;;;;;;;5058903;28;20287;-87
2021/07/16 04:28:07;;;;;;;29.45;7.32;;;;;;;;;;5041702;28;20045;-87
2021/07/16 04:30:34;;;;;;;35.90;6.68;;;;;;;;;;5041220;28;20085;-87
2021/07/16 04:33:02;;;;;;;29.25;6.13;;;;;;;;;;5041069;28;20064;-86
2021/07/16 04:35:31;;;;;;;30.58;6.40;;;;;;;;;;5058378;28;20049;-87
2021/07/16 04:37:59;;;;;;;28.90;6.45;;;;;;;;;;5042934;28;20067;-87
2021/07/16 04:40:34;;;;;;;;;;;;;;;;;;5063040;28;20063;-87
2021/07/16 04:43:01;;;;;;;33.10;5.85;;;;;;;;;;5042672;28;19921;-87
2021/07/16 04:45:31;;;;;;;33.67;6.50;;;;;;;;;;5051228;28;20045;-86
2021/07/16 04:47:58;;;;;;;30.17;6.80;;;;;;;;;;5037874;28;20045;-87
2021/07/16 04:50:29;;;;;;;34.70;6.82;;;;;;;;;;5054585;28;20053;-86
2021/07/16 04:52:58;;;;;;;24.15;6.03;;;;;;;;;;5036455;28;20064;-86
2021/07/16 04:55:27;;;;;;;26.50;6.13;;;;;;;;;;5035819;28;20045;-88
2021/07/16 04:57:56;;;;;;;35.08;7.05;;;;;;;;;;5037378;28;20123;-87
2021/07/16 05:00:29;;;;;;;34.10;6.32;;;;;;;;;;5036568;28;20236;-86
2021/07/16 05:02:56;;;;;;;36.83;7.13;;;;;;;;;;5040051;28;20052;-86
2021/07/16 05:05:23;;;;;;;28.00;5.85;;;;;;;;;;5045560;28;20042;-86
2021/07/16 05:07:54;;;;;;;29.33;6.25;;;;;;;;;;5032935;28;20045;-86
2021/07/16 05:10:25;;;;;;;33.88;5.95;;;;;;;;;;5019979;28;20054;-87
2021/07/16 05:13:01;;;;;;;27.90;5.82;;;;;;;;;;5017927;28;20049;-87
2021/07/16 05:15:32;;;;;;;31.73;5.32;;;;;;;;;;5018013;28;20046;-87
2021/07/16 05:18:01;;;;;;;34.05;6.47;;;;;;;;;;5017667;28;20410;-87
2021/07/16 05:20:27;;;;;;;34.13;5.78;;;;;;;;;;5019339;28;20070;-86
2021/07/16 05:22:55;;;;;;;27.92;5.22;;;;;;;;;;5038160;28;20048;-87
2021/07/16 05:25:23;;;;;;;30.52;6.03;;;;;;;;;;5051595;28;20228;-88
2021/07/16 05:27:54;;;;;;;27.10;5.53;;;;;;;;;;5051895;28;20039;-86
2021/07/16 05:30:22;;;;;;;24.50;5.15;;;;;;;;;;5051569;28;20041;-86
2021/07/16 05:32:54;;;;;;;29.52;5.68;;;;;;;;;;5051590;28;20053;-85
2021/07/16 05:35:25;;;;;;;22.65;5.57;;;;;;;;;;5050460;28;20209;-86
2021/07/16 05:37:55;;;;;;;24.60;5.38;;;;;;;;;;5050934;28;20097;-87
2021/07/16 05:40:26;;;;;;;30.52;5.60;;;;;;;;;;5050031;28;20041;-87
2021/07/16 05:43:08;;;;;;;33.33;5.75;;;;;;;;;;5050169;28;20046;-86
2021/07/16 05:45:36;;;;;;;24.33;4.82;;;;;;;;;;5052027;28;20049;-87
2021/07/16 05:48:03;;;;;;;28.55;5.40;;;;;;;;;;5056137;28;20041;-85
2021/07/16 05:50:42;;;;;;;31.05;5.93;;;;;;;;;;5072631;28;20064;-87
2021/07/16 05:53:09;;;;;;;30.13;5.28;;;;;;;;;;5068825;28;20092;-86
2021/07/16 05:55:36;;;;;;;26.20;5.38;;;;;;;;;;5051365;28;20119;-86
2021/07/16 05:58:28;;;;;;;36.55;6.47;;;;;;;;;;5051637;28;20053;-86
2021/07/16 06:00:55;;;;;;;27.55;6.00;;;;;;;;;;5052947;28;20067;-85
2021/07/16 06:03:24;;;;;;;31.95;5.93;;;;;;;;;;5053265;28;20148;-86
2021/07/16 06:06:02;;;;;;;26.38;5.57;;;;;;;;;;5052602;28;20080;-85
2021/07/16 06:08:29;;;;;;;32.17;5.07;;;;;;;;;;5053051;28;20049;-87
2021/07/16 06:10:59;;;;;;;29.77;5.00;;;;;;;;;;5052515;28;20187;-86
2021/07/16 06:13:26;;;;;;;26.70;5.22;;;;;;;;;;5053224;28;20099;-87
2021/07/16 06:16:02;;;;;;;27.73;5.80;;;;;;;;;;5051802;28;20067;-86
2021/07/16 06:18:29;;;;;;;36.95;6.25;;;;;;;;;;5051993;28;20057;-86
2021/07/16 06:20:56;;;;;;;29.25;4.93;;;;;;;;;;5049140;28;20060;-86
2021/07/16 06:23:23;;;;;;;35.42;5.43;;;;;;;;;;5050448;28;20033;-86
2021/07/16 06:25:50;;;;;;;31.10;5.13;;;;;;;;;;5050848;28;20068;-86
2021/07/16 06:28:17;;;;;;;26.10;5.28;;;;;;;;;;5070316;28;20063;-86
2021/07/16 06:30:44;;;;;;;33.58;6.55;;;;;;;;;;5071148;28;20049;-86
2021/07/16 06:33:11;;;;;;;29.80;5.43;;;;;;;;;;5071991;28;20063;-87
2021/07/16 06:35:37;;;;;;;28.90;5.40;;;;;;;;;;5066866;28;20049;-88
2021/07/16 06:38:20;;;;;;;36.30;6.45;;;;;;;;;;5050245;28;20202;-86
2021/07/16 06:40:46;;;;;;;38.83;6.93;;;;;;;;;;5051605;28;20109;-86
2021/07/16 06:43:16;;;;;;;36.58;6.13;;;;;;;;;;5045430;28;20077;-86
2021/07/16 06:45:44;;;;;;;30.70;5.25;;;;;;;;;;5043553;28;20056;-85
2021/07/16 06:48:13;;;;;;;31.83;5.65;;;;;;;;;;5059911;28;20314;-85
2021/07/16 06:50:40;;;;;;;31.63;5.28;;;;;;;;;;5045382;28;20622;-85
2021/07/16 06:53:06;;;;;;;29.38;5.53;;;;;;;;;;5043720;28;20441;-86
2021/07/16 06:55:33;;;;;;;33.28;6.18;;;;;;;;;;5037569;28;20041;-86
2021/07/16 06:58:01;;;;;;;37.35;5.65;;;;;;;;;;5040008;28;20068;-86
2021/07/16 07:00:33;;;;;;;28.42;4.95;;;;;;;;;;5037162;28;20273;-86
2021/07/16 07:03:02;;;;;;;39.30;5.80;;;;;;;;;;5033442;28;20053;-86
2021/07/16 07:05:51;;;;;;;30.75;6.13;;;;;;;;;;5058323;28;20044;-86
2021/07/16 07:08:19;;;;;;;30.33;5.43;;;;;;;;;;5042949;28;20101;-85
2021/07/16 07:10:45;;;;;;;28.20;6.68;;;;;;;;;;5039221;28;20085;-86
2021/07/16 07:13:12;;;;;;;36.28;6.28;;;;;;;;;;5056597;28;20064;-86
2021/07/16 07:15:39;;;;;;;31.42;5.20;;;;;;;;;;5039271;28;20095;-85
2021/07/16 07:18:06;;;;;;;33.65;5.78;;;;;;;;;;5039189;28;20084;-85
2021/07/16 07:20:34;;;;;;;31.73;5.22;;;;;;;;;;5039547;28;20134;-84
2021/07/16 07:23:01;;;;;;;29.10;5.55;;;;;;;;;;5056026;28;20045;-84
2021/07/16 07:25:28;;;;;;;29.52;5.75;;;;;;;;;;5038754;28;20374;-85
2021/07/16 07:27:55;;;;;;;29.33;5.90;;;;;;;;;;5057281;28;20045;-85
2021/07/16 07:30:21;;;;;;;20.17;4.80;;;;;;;;;;5037769;28;20243;-85
2021/07/16 07:32:49;;;;;;;37.25;7.30;;;;;;;;;;5037320;28;20409;-86
2021/07/16 07:35:15;;;;;;;36.05;5.78;;;;;;;;;;5052046;28;20324;-86
2021/07/16 07:37:46;;;;;;;42.50;7.05;;;;;;;;;;5037604;28;20393;-86
2021/07/16 07:40:19;;;;;;;37.50;5.97;;;;;;;;;;5050086;28;20063;-86
2021/07/16 07:42:46;;;;;;;29.92;6.28;;;;;;;;;;5067057;28;20059;-86
2021/07/16 07:45:12;;;;;;;37.33;6.82;;;;;;;;;;5047652;28;20111;-85
2021/07/16 07:48:05;;;;;;;40.33;5.95;;;;;;;;;;5055990;28;20052;-86
2021/07/16 07:50:33;;;;;;;38.17;5.72;;;;;;;;;;5054849;28;20218;-87
2021/07/16 07:53:07;;;;;;;34.63;6.50;;;;;;;;;;5056484;28;20056;-84
2021/07/16 07:55:41;;;;;;;32.83;5.47;;;;;;;;;;5040778;28;20049;-86
2021/07/16 07:58:09;;;;;;;27.40;5.50;;;;;;;;;;5076953;28;20116;-86
2021/07/16 08:00:36;;;;;;;33.88;5.85;;;;;;;;;;5051576;28;20055;-86
2021/07/16 08:03:04;;;;;;;32.88;5.60;;;;;;;;;;5039215;28;20435;-85
2021/07/16 08:05:31;;;;;;;36.15;5.82;;;;;;;;;;5040620;28;20111;-87
2021/07/16 08:07:57;;;;;;;32.35;5.72;;;;;;;;;;5033195;28;20105;-85
2021/07/16 08:10:24;;;;;;;33.03;6.00;;;;;;;;;;5034146;28;20045;-84
2021/07/16 08:12:51;;;;;;;36.20;6.47;;;;;;;;;;5041943;28;20044;-85
2021/07/16 08:15:18;;;;;;;34.20;5.93;;;;;;;;;;5036894;28;20054;-86
2021/07/16 08:17:45;;;;;;;32.40;6.00;;;;;;;;;;5039935;28;20148;-85
2021/07/16 08:20:19;;;;;;;29.45;4.93;;;;;;;;;;5044252;28;20117;-86
2021/07/16 08:22:47;;;;;;;29.48;5.43;;;;;;;;;;5046953;28;20068;-87
2021/07/16 08:25:14;;;;;;;32.88;6.38;;;;;;;;;;5041884;28;20051;-86
2021/07/16 08:27:41;;;;;;;31.42;5.82;;;;;;;;;;5039875;28;20198;-86
2021/07/16 08:30:09;;;;;;;31.38;6.32;;;;;;;;;;5048022;28;20084;-86
2021/07/16 08:32:38;;;;;;;30.33;5.35;;;;;;;;;;5065644;28;20029;-85
2021/07/16 08:35:06;;;;;;;42.75;6.80;;;;;;;;;;5038257;28;20053;-86
2021/07/16 08:37:34;;;;;;;36.65;5.38;;;;;;;;;;5035719;28;20122;-86
2021/07/16 08:40:01;;;;;;;27.40;5.55;;;;;;;;;;5052745;28;20191;-86
2021/07/16 08:42:28;;;;;;;36.08;6.70;;;;;;;;;;5036638;28;20081;-87
2021/07/16 08:44:55;;;;;;;37.13;6.97;;;;;;;;;;5053647;28;20065;-86
2021/07/16 08:47:22;;;;;;;27.67;6.35;;;;;;;;;;5037997;28;20095;-86
2021/07/16 08:49:49;;;;;;;29.25;5.63;;;;;;;;;;5018166;28;20061;-86
2021/07/16 08:52:17;;;;;;;24.67;5.93;;;;;;;;;;5022136;28;20057;-86
2021/07/16 08:54:49;;;;;;;40.53;6.00;;;;;;;;;;5034957;28;20057;-86
2021/07/16 08:57:17;;;;;;;29.50;6.00;;;;;;;;;;5017974;28;20113;-86
2021/07/16 08:59:45;;;;;;;27.25;5.68;;;;;;;;;;5032748;28;20222;-86
2021/07/16 09:02:12;;;;;;;28.23;6.18;;;;;;;;;;5018279;28;20128;-86
2021/07/16 09:04:39;;;;;;;30.35;6.03;;;;;;;;;;5035736;28;20076;-86
2021/07/16 09:07:07;;;;;;;37.63;6.13;;;;;;;;;;5034317;28;20496;-86
2021/07/16 09:09:40;;;;;;;30.90;5.50;;;;;;;;;;5022436;28;20049;-87
2021/07/16 09:12:08;;;;;;;30.58;6.22;;;;;;;;;;5022455;28;20072;-85
2021/07/16 09:14:38;;;;;;;32.70;5.85;;;;;;;;;;4999911;28;20183;-86
2021/07/16 09:17:07;;;;;;;27.75;5.78;;;;;;;;;;5035624;28;20037;-86
2021/07/16 09:19:33;;;;;;;34.45;6.72;;;;;;;;;;5035602;28;20069;-86
2021/07/16 09:22:01;;;;;;;34.33;6.05;;;;;;;;;;5016585;28;20417;-86
2021/07/16 09:24:29;;;;;;;32.05;6.25;;;;;;;;;;5077724;28;20143;-86
2021/07/16 09:26:59;;;;;;;26.85;6.45;;;;;;;;;;5057264;28;20132;-86
2021/07/16 09:29:30;;;;;;;26.80;6.18;;;;;;;;;;5080164;28;20052;-86
2021/07/16 09:32:08;;;;;;;28.20;5.95;;;;;;;;;;5068872;28;20295;-86
2021/07/16 09:34:40;;;;;;;28.17;6.10;;;;;;;;;;5040526;28;20131;-86
2021/07/16 09:37:09;;;;;;;22.50;5.03;;;;;;;;;;5042430;28;20045;-87
2021/07/16 09:39:36;;;;;;;29.13;5.80;;;;;;;;;;5037251;28;20052;-85
2021/07/16 09:42:03;;;;;;;19.85;5.18;;;;;;;;;;5054590;28;20435;-86
2021/07/16 09:44:42;;;;;;;21.02;5.65;;;;;;;;;;5039055;28;20049;-86
2021/07/16 09:47:09;;;;;;;22.02;4.78;;;;;;;;;;5038412;28;20244;-86
2021/07/16 09:49:37;;;;;;;29.55;5.90;;;;;;;;;;5039127;28;20045;-86
2021/07/16 09:52:08;;;;;;;27.08;5.38;;;;;;;;;;5054873;28;20048;-86
2021/07/16 09:54:35;;;;;;;21.83;5.00;;;;;;;;;;5058513;28;20490;-87
2021/07/16 09:57:02;;;;;;;22.17;5.20;;;;;;;;;;5037590;28;20053;-87
2021/07/16 09:59:31;;;;;;;23.10;5.10;;;;;;;;;;5056618;28;20144;-85
2021/07/16 10:02:02;;;;;;;28.13;5.85;;;;;;;;;;5058736;28;20049;-85
2021/07/16 10:04:33;;;;;;;23.08;5.57;;;;;;;;;;5038747;28;20433;-85
2021/07/16 10:06:59;;;;;;;25.17;4.93;;;;;;;;;;5042845;28;20048;-86
2021/07/16 10:09:27;;;;;;;19.83;5.03;;;;;;;;;;5055076;28;20083;-87
2021/07/16 10:11:57;;;;;;;23.85;5.25;;;;;;;;;;5055298;28;20060;-86
2021/07/16 10:14:24;;;;;;;23.45;4.90;;;;;;;;;;5038786;28;20080;-87
2021/07/16 10:16:56;;;;;;;22.33;5.38;;;;;;;;;;5059684;28;20053;-86
2021/07/16 10:19:42;;;;;;;22.48;4.90;;;;;;;;;;5057456;28;20045;-86
2021/07/16 10:22:09;;;;;;;26.17;5.30;;;;;;;;;;5056538;28;20045;-86
2021/07/16 10:24:39;;;;;;;25.92;5.72;;;;;;;;;;5041183;28;20049;-85
2021/07/16 10:27:28;;;;;;;24.38;5.38;;;;;;;;;;5042867;28;20162;-85
2021/07/16 10:30:07;;;;;;;27.85;5.70;;;;;;;;;;5058826;28;20060;-86
2021/07/16 10:32:44;;;;;;;24.10;5.10;;;;;;;;;;5035103;28;20136;-86
2021/07/16 10:35:27;;;;;;;30.55;6.05;;;;;;;;;;5025900;28;20049;-86
2021/07/16 10:37:59;;;;;;;23.15;5.03;;;;;;;;;;5042534;28;20045;-86
2021/07/16 10:40:41;;;;;;;24.10;5.35;;;;;;;;;;5040484;28;20075;-86
2021/07/16 10:43:29;;;;;;;26.90;5.45;;;;;;;;;;5041268;28;20045;-86
2021/07/16 10:46:00;;;;;;;28.40;6.22;;;;;;;;;;5041070;28;20205;-85
2021/07/16 10:48:41;;;;;;;22.35;5.10;;;;;;;;;;5034791;28;20057;-86
2021/07/16 10:51:21;;;;;;;22.90;4.68;;;;;;;;;;5038408;28;20057;-87
2021/07/16 10:53:52;;;;;;;22.13;4.80;;;;;;;;;;5040223;28;20051;-85
2021/07/16 10:56:37;;;;;;;29.23;5.65;;;;;;;;;;5036561;28;20116;-86
2021/07/16 10:59:07;;;;;;;25.80;5.85;;;;;;;;;;5022449;28;20079;-86
2021/07/16 11:01:41;;;;;;;25.05;5.78;;;;;;;;;;5038889;28;20081;-86
2021/07/16 11:04:43;;;;;;;;;;;;;;;;;;;;;
2021/07/16 11:07:10;;;;;;;19.33;4.53;;;;;;;;;;5053331;28;20256;-85
2021/07/16 11:09:39;;;;;;;19.60;5.28;;;;;;;;;;5038076;28;20053;-86
2021/07/16 11:12:27;;;;;;;22.50;5.30;;;;;;;;;;5057057;28;20053;-87
2021/07/16 11:14:55;;;;;;;22.40;5.15;;;;;;;;;;5059422;28;20048;-86
2021/07/16 11:17:38;;;;;;;25.80;5.03;;;;;;;;;;5055826;28;20112;-86
2021/07/16 11:20:11;;;;;;;24.83;5.07;;;;;;;;;;5035505;28;20145;-86
2021/07/16 11:23:00;;;;;;;23.95;5.22;;;;;;;;;;5057539;28;20045;-85
2021/07/16 11:25:32;;;;;;;19.63;5.57;;;;;;;;;;5054611;28;20049;-86
2021/07/16 11:28:00;;;;;;;21.80;5.07;;;;;;;;;;5036293;28;20055;-86
2021/07/16 11:30:28;;;;;;;22.48;5.43;;;;;;;;;;5054809;28;20045;-86
2021/07/16 11:33:24;;;;;;;26.88;5.40;;;;;;;;;;5043763;28;20479;-86
2021/07/16 11:36:17;;;;;;;19.83;5.00;;;;;;;;;;5055478;28;20165;-85
2021/07/16 11:38:52;;;;;;;26.88;5.57;;;;;;;;;;5039957;28;20444;-86
2021/07/16 11:41:30;;;;;;;21.27;5.13;;;;;;;;;;5037907;28;20063;-86
2021/07/16 11:44:32;;;;;;;22.25;5.15;;;;;;;;;;5022280;28;20165;-85
2021/07/16 11:47:18;;;;;;;18.50;5.07;;;;;;;;;;5018267;28;20057;-86
2021/07/16 11:49:52;;;;;;;25.92;5.13;;;;;;;;;;5018305;28;20386;-86
2021/07/16 11:52:24;;;;;;;28.00;5.60;;;;;;;;;;5014906;28;20084;-86
2021/07/16 11:55:01;;;;;;;18.40;5.10;;;;;;;;;;5015102;28;20050;-86
2021/07/16 11:57:37;;;;;;;24.13;6.53;;;;;;;;;;5005526;28;20046;-86
2021/07/16 12:00:17;;;;;;;19.63;4.90;;;;;;;;;;5006918;28;20048;-86
2021/07/16 12:03:33;;;;;;;22.65;5.03;;;;;;;;;;4998862;28;20088;-86
2021/07/16 12:06:08;;;;;;;28.27;5.85;;;;;;;;;;5013789;28;20069;-85
2021/07/16 12:08:55;;;;;;;26.17;5.55;;;;;;;;;;5015346;28;20054;-87
2021/07/16 12:11:55;;;;;;;20.95;5.55;;;;;;;;;;4996373;28;20055;-85
2021/07/16 12:14:28;;;;;;;22.10;4.55;;;;;;;;;;5015292;28;20046;-87
2021/07/16 12:24:19;;;;;;;22.05;5.13;;;;;;;;;;4999065;28;20106;-86
2021/07/16 12:27:28;;;;;;;19.17;4.55;;;;;;;;;;5017497;28;20595;-85
2021/07/16 12:30:22;;;;;;;19.67;4.50;;;;;;;;;;5013730;28;20050;-87
2021/07/16 12:47:11;;;;;;;;;;;;;;;;;;;;;
2021/07/16 12:54:29;;;;;;;;;;;;;;;;;;;;;
2021/07/16 13:08:02;;;;;;;;;;;;;;;;;;;;;
2021/07/16 13:28:38;;;;;;;16.23;5.20;;;;;;;;;;4998788;28;20049;-86
2021/07/16 13:31:25;;;;;;;19.75;4.82;;;;;;;;;;5001429;28;20519;-86
2021/07/16 13:34:35;;;;;;;20.17;5.10;;;;;;;;;;5054365;28;20044;-85
2021/07/16 13:37:32;;;;;;;;;;;;;;;;;;;;;
2021/07/16 13:40:53;;;;;;;19.52;4.85;;;;;;;;;;5024691;28;20040;-85
2021/07/16 13:44:14;;;;;;;22.83;5.15;;;;;;;;;;5065363;28;20070;-85
2021/07/16 13:57:08;;;;;;;19.92;4.43;;;;;;;;;;5015290;28;20034;-87
2021/07/16 14:00:27;;;;;;;21.23;4.40;;;;;;;;;;4982748;28;20050;-86
2021/07/16 14:03:40;;;;;;;20.58;4.75;;;;;;;;;;4991808;28;20375;-86
2021/07/16 14:07:05;;;;;;;20.45;5.00;;;;;;;;;;4974797;28;20140;-86
2021/07/16 14:13:52;;;;;;;16.55;4.40;;;;;;;;;;4984846;28;20204;-87
2021/07/16 14:16:35;;;;;;;16.90;4.85;;;;;;;;;;4989015;28;20042;-86
2021/07/16 14:19:04;;;;;;;18.02;4.65;;;;;;;;;;4990302;28;20367;-86
2021/07/16 14:21:43;;;;;;;23.10;4.75;;;;;;;;;;5042198;28;20141;-86
2021/07/16 14:24:44;;;;;;;19.67;4.85;;;;;;;;;;5050758;28;20041;-86
2021/07/16 14:31:22;;;;;;;;;;;;;;;;;;;;;
2021/07/16 14:34:18;;;;;;;;;;;;;;;;;;;;;
2021/07/16 14:37:38;;;;;;;26.08;5.43;;;;;;;;;;5017111;28;20079;-86
2021/07/16 14:41:17;;;;;;;;;;;;;;;;;;;;;
2021/07/16 14:44:31;;;;;;;19.92;4.70;;;;;;;;;;5031943;28;20505;-87
2021/07/16 14:47:54;;;;;;;;;;;;;;;;;;;;;
2021/07/16 14:51:36;;;;;;;22.67;6.43;;;;;;;;;;4985077;28;20076;-87
2021/07/16 15:01:32;;;;;;;20.83;5.13;;;;;;;;;;4965040;28;20603;-88
2021/07/16 15:04:37;;;;;;;19.30;5.00;;;;;;;;;;5020371;28;20045;-84
2021/07/16 15:10:50;;;;;;;16.15;5.28;;;;;;;;;;5091042;28;20051;-86
2021/07/16 15:13:59;;;;;;;;;;;;;;;;;;;;;
2021/07/16 15:16:51;;;;;;;22.92;5.60;;;;;;;;;;5097110;28;20040;-87
2021/07/16 15:19:51;;;;;;;21.38;5.20;;;;;;;;;;5074413;28;20089;-87
2021/07/16 15:22:27;;;;;;;21.33;5.55;;;;;;;;;;5047095;28;20058;-87
2021/07/16 15:28:11;;;;;;;21.30;4.43;;;;;;;;;;5069862;28;20072;-88
2021/07/16 15:30:56;;;;;;;21.70;4.57;;;;;;;;;;5058811;28;20081;-87
2021/07/16 15:33:37;;;;;;;23.58;5.90;;;;;;;;;;5081028;28;20108;-87
2021/07/16 15:36:36;;;;;;;20.55;4.60;;;;;;;;;;5066525;28;20052;-87
2021/07/16 15:39:44;;;;;;;23.15;5.13;;;;;;;;;;5049993;28;20515;-87
2021/07/16 15:42:18;;;;;;;18.60;4.88;;;;;;;;;;5069791;28;20228;-87
2021/07/16 15:45:15;;;;;;;19.98;4.80;;;;;;;;;;5077323;28;20269;-87
2021/07/16 15:48:12;;;;;;;19.48;5.20;;;;;;;;;;5068700;28;20059;-87
2021/07/16 15:50:59;;;;;;;21.05;5.15;;;;;;;;;;5073157;28;20051;-87
2021/07/16 15:53:27;;;;;;;25.83;5.82;;;;;;;;;;5071581;28;20404;-87
2021/07/16 15:56:11;;;;;;;23.80;5.40;;;;;;;;;;5087572;28;20176;-87
2021/07/16 15:59:09;;;;;;;20.08;5.30;;;;;;;;;;4979299;28;20210;-86
2021/07/16 16:01:53;;;;;;;23.08;5.40;;;;;;;;;;5000275;28;20189;-86
2021/07/16 16:04:47;;;;;;;22.98;5.38;;;;;;;;;;4994974;28;20046;-87
2021/07/16 16:07:49;;;;;;;25.20;6.60;;;;;;;;;;5000408;28;20056;-88
2021/07/16 16:10:36;;;;;;;26.92;5.80;;;;;;;;;;4991324;28;20077;-88
2021/07/16 16:13:48;;;;;;;25.92;5.80;;;;;;;;;;4990404;28;20046;-91
2021/07/16 16:16:26;;;;;;;21.73;5.25;;;;;;;;;;4984799;28;20194;-86
2021/07/16 16:19:15;;;;;;;22.58;5.25;;;;;;;;;;4986131;28;20054;-87
2021/07/16 16:22:21;;;;;;;26.95;5.68;;;;;;;;;;4994356;28;20233;-87
2021/07/16 16:25:01;;;;;;;;;;;;;;;;;;;;;
2021/07/16 16:28:02;;;;;;;23.73;5.00;;;;;;;;;;5041099;28;20049;-87
2021/07/16 16:31:08;;;;;;;23.38;5.22;;;;;;;;;;5031353;28;20136;-87
2021/07/16 16:34:26;;;;;;;23.20;5.03;;;;;;;;;;5042341;28;20113;-89
2021/07/16 16:37:05;;;;;;;22.35;5.60;;;;;;;;;;5046523;28;20063;-87
2021/07/16 16:39:33;;;;;;;22.77;5.35;;;;;;;;;;5060809;28;20072;-88
2021/07/16 16:42:09;;;;;;;24.83;6.22;;;;;;;;;;5047920;28;20189;-87
2021/07/16 16:44:54;;;;;;;31.40;6.05;;;;;;;;;;5058482;28;20049;-88
2021/07/16 16:47:40;;;;;;;23.00;5.50;;;;;;;;;;5060143;28;20148;-88
2021/07/16 16:50:26;;;;;;;31.10;6.70;;;;;;;;;;5043372;28;20033;-87
2021/07/16 16:53:16;;;;;;;26.52;7.05;;;;;;;;;;5034865;28;20041;-88
2021/07/16 16:55:43;;;;;;;29.42;6.80;;;;;;;;;;5013903;28;20046;-87